x

South Hatteras - 225 South Of Cape Hatteras (41002) Wave Buoy

9:50am - Fri 24th Oct 2014 All times are EDT. -4 hours from GMT.

  • Sig Wave height 5.6ft
  • Swell Direction
  • Peak Period 9s
  • Average Period 6s
  • Wind
    11mph, 13mph gusts
  • Sea Temp 77°f
  • 空気 Temp 73°f
  • Sea Pressure 1016mb
  • South Hatteras - 225 South Of Cape Hatteras
  • South Hatteras - 225 South Of Cape Hatteras

More Historic Weather Station data

Upgrade to MSW Pro to gain access to the past 30 days of data for over 8000 Wavebouys and Weather Stations around the globe.

Join Pro

Comparision Forecast

View Surf forecast
   
Fri 10/24 9:50am 5.5ft 9s 6s 11 13 mph 1016mb 77f 73f
8:50am 5ft 9s 6s 11 13 mph 1015.6mb 77f 73f
7:50am 5.5ft 10s 7s 11 13 mph 1015.2mb 77f 73f
6:50am 5ft 10s 6s 11 13 mph 1014.7mb 77f 72f
5:50am 6ft 10s 6s 9 13 mph 1014.5mb 77f 72f
4:50am 5ft 9s 6s 11 16 mph 1014.1mb 78f 72f
3:50am 6ft 10s 6s 13 18 mph 1014mb 78f 72f
2:50am 5.5ft 10s 6s 16 18 mph 1014.4mb 78f 72f
1:50am 6ft 10s 6s 16 18 mph 1015mb 78f 71f
12:50am 6ft 10s 6s 16 20 mph 1015.4mb 78f 71f
Thu 10/23 11:50pm 6ft 11s 6s 13 22 mph 1015.8mb 78f 71f
10:50pm 6.5ft 11s 7s 13 18 mph 1015.8mb 78f 70f
9:50pm 6.5ft 11s 6s 13 18 mph 1015.4mb 78f 70f
8:50pm 6.5ft 11s 6s 13 18 mph 1015.1mb 78f 70f
7:50pm 7ft 11s 6s 11 16 mph 1014.7mb 78f 70f
6:50pm 7ft 11s 6s 13 18 mph 1014.1mb 78f 70f
5:50pm 7.5ft 9s 6s 13 18 mph 1013.7mb 78f 70f
4:50pm 7.5ft 8s 6s 16 20 mph 1013.7mb 78f 71f
3:50pm 7.5ft 8s 6s 16 20 mph 1013.6mb 78f 71f
2:50pm 8ft 9s 6s 18 22 mph 1013.8mb 78f 71f
1:50pm 8ft 9s 6s 18 25 mph 1013.9mb 78f 71f
12:50pm 8ft 8s 6s 18 22 mph 1014.6mb 78f 70f
11:50am 7ft 9s 6s 18 25 mph 1014.8mb 78f 71f
10:50am 7.5ft 8s 6s 20 22 mph 1014.9mb 78f 71f
9:50am 7ft 7s 6s 18 22 mph 1014.8mb 78f 71f
8:50am 6.5ft 8s 5s 20 25 mph 1014.4mb 78f 71f
7:50am 7ft 8s 6s 18 25 mph 1014.1mb 78f 71f
6:50am 7ft 8s 6s 20 25 mph 1013.6mb 78f 71f
5:50am 7ft 8s 6s 18 22 mph 1013.1mb 78f 71f
4:50am 7.5ft 8s 6s 20 25 mph 1012.7mb 78f 71f
3:50am 8ft 8s 6s 18 22 mph 1012.7mb 78f 70f
2:50am 7.5ft 7s 6s 16 20 mph 1013.5mb 78f 70f
1:50am 7ft 6s 5s 20 25 mph 1013.8mb 78f 70f
12:50am 6.5ft 7s 5s 22 27 mph 1013.8mb 78f 70f
Wed 10/22 11:50pm 6ft 7s 5s 20 27 mph 1014.1mb 78f 71f
10:50pm 6ft 7s 5s 18 22 mph 1014.3mb 78f 71f
9:50pm 7ft 7s 6s 20 25 mph 1014.2mb 78f 70f
8:50pm 6.5ft 6s 5s 22 27 mph 1013.9mb 78f 70f
7:50pm 6ft 6s 5s 20 25 mph 1013.3mb 78f 70f
6:50pm 6ft 7s 5s 18 25 mph 1012.8mb 78f 70f
5:50pm 6ft 6s 5s 22 27 mph 1012.2mb 78f 71f
4:50pm 6ft 6s 5s 22 29 mph 1011.8mb 79f 72f
3:50pm 5.5ft 6s 5s 25 31 mph 1011.3mb 79f 73f
2:50pm 5ft 6s 5s 25 31 mph 1011.2mb 79f 74f
1:50pm 4.5ft 6s 5s 22 27 mph 1011.3mb 79f 75f
12:50pm 5ft 6s 5s 16 20 mph 1012mb 79f 75f
11:50am 5ft 6s 5s 22 27 mph 1011.9mb 79f 75f
10:50am 4.5ft 5s 5s 20 22 mph 1011.9mb 79f 78f
9:50am 4.5ft 6s 5s 20 22 mph 1012.2mb 79f 77f
8:50am 5ft 6s 5s 20 25 mph 1012mb 79f 77f
7:50am 5ft 6s 5s 20 25 mph 1011.5mb 79f 77f
6:50am 5ft 5s 5s 20 25 mph 1011mb 79f 77f
5:50am 4ft 10s 4s 20 25 mph 1010.7mb 79f 77f
4:50am 3.5ft 10s 4s 20 22 mph 1010.4mb 79f 77f
3:50am 3.5ft 9s 5s 16 22 mph 1010.7mb 79f 77f
2:50am 3.5ft 9s 5s 16 20 mph 1010.9mb 80f 77f
1:50am 3.5ft 10s 5s 18 20 mph 1011.3mb 80f 78f
12:50am 3ft 10s 5s 16 18 mph 1012.1mb 80f 78f
Tue 10/21 11:50pm 3.5ft 10s 5s 16 22 mph 1012.7mb 80f 77f
10:50pm 3.5ft 10s 5s 13 18 mph 1012.8mb 80f 78f
9:50pm 3.5ft 5s 5s 11 13 mph 1012.7mb 80f 78f
8:50pm 3.5ft 10s 6s 11 13 mph 1012.8mb 80f 78f
7:50pm 3.5ft 5s 6s 11 13 mph 1012.7mb 80f 78f
6:50pm 3.5ft 8s 6s 9 11 mph 1012.5mb 80f 77f
5:50pm 3.5ft 10s 6s 11 13 mph 1012.1mb 80f 77f
4:50pm 3.5ft 10s 6s 9 11 mph 1012.3mb 80f 77f
3:50pm 3.5ft 8s 6s 9 11 mph 1012.5mb 80f 76f
2:50pm 3.5ft 8s 6s 9 11 mph 1012.7mb 80f 75f
1:50pm 3ft 8s 6s 9 13 mph 1013.3mb 80f 75f
12:50pm 3.5ft 8s 6s 7 9 mph 1014.6mb 80f 74f
11:50am 3.5ft 8s 6s 7 9 mph 1015.2mb 80f 73f
10:50am 3ft 8s 6s 11 13 mph 1015.4mb 80f 73f
9:50am 3.5ft 8s 6s 11 13 mph 1015.5mb 80f 72f
8:50am 3.5ft 11s 6s 16 18 mph 1015mb 80f 71f
7:50am 3.5ft 8s 6s 16 18 mph 1014.8mb 80f 70f
6:50am 4ft 8s 6s 11 16 mph 1015.3mb 80f 71f
5:50am 4ft 8s 6s 11 16 mph 1014.9mb 80f 70f
4:50am 4ft 9s 5s 18 20 mph 1015mb 80f 70f
3:50am 4ft 9s 5s 16 18 mph 1014.7mb 80f 73f
2:50am 4ft 8s 6s 20 25 mph 1015.5mb 80f 75f
1:50am 4ft 12s 5s 18 20 mph 1016.2mb 80f 75f
12:50am 4ft 8s 5s 16 20 mph 1016.9mb 80f 75f
Mon 10/20 11:50pm 3.5ft 12s 5s 16 18 mph 1017.4mb 80f 75f
10:50pm 3.5ft 9s 6s 16 18 mph 1017.9mb 80f 75f
9:50pm 3.5ft 8s 6s 13 18 mph 1018.2mb 80f 74f
8:50pm 3.5ft 9s 6s 11 13 mph 1018.2mb 80f 74f
7:50pm 3.5ft 8s 6s 9 13 mph 1018.1mb 80f 74f
6:50pm 3.5ft 8s 6s 11 13 mph 1017.8mb 80f 73f
5:50pm 3.5ft 9s 6s 7 11 mph 1018.2mb 80f 73f
4:50pm 3.5ft 8s 7s 9 13 mph 1018.2mb 80f 73f
3:50pm 3.5ft 8s 6s 9 13 mph 1018.5mb 80f 72f